Time;durP1;ratioP1;P1;durP2;ratioP2;P2;SDS_P1;SDS_P2;PMS_P1;PMS_P2;Temp;Humidity;BMP_temperature;BMP_pressure;BME280_temperature;BME280_humidity;BME280_pressure;Samples;Min_cycle;Max_cycle;Signal;HPM_P1;HPM_P2
2022/12/17 13:07:39;;;;;;;31.75;11.20;;;;;;;-1.24;67.46;101514.03;10235699;28;20139;-88
2022/12/17 13:12:46;;;;;;;39.50;11.13;;;;;;;-1.39;67.63;101506.81;10231340;28;20063;-88
2022/12/17 13:18:35;;;;;;;28.95;10.30;;;;;;;-1.32;67.19;101504.75;10237919;28;20048;-89
2022/12/17 13:23:38;;;;;;;36.20;9.98;;;;;;;-1.33;67.51;101500.41;10230669;28;20047;-88
2022/12/17 13:28:40;;;;;;;30.88;10.85;;;;;;;-1.30;66.91;101498.50;10251053;28;20046;-88
2022/12/17 13:33:59;;;;;;;34.97;11.65;;;;;;;-1.29;67.45;101510.75;10244800;28;20062;-88
2022/12/17 13:39:23;;;;;;;34.10;12.43;;;;;;;-1.26;66.72;101505.34;10243659;28;20054;-89
2022/12/17 13:44:42;;;;;;;32.92;12.20;;;;;;;-1.59;67.52;101510.38;10242572;28;20048;-89
2022/12/17 13:49:51;;;;;;;49.17;13.40;;;;;;;-1.51;67.41;101510.88;10232621;28;20047;-88
2022/12/17 13:55:24;;;;;;;37.45;13.00;;;;;;;-1.31;67.09;101514.38;10247837;28;20501;-87
2022/12/17 14:00:29;;;;;;;41.55;15.00;;;;;;;-1.27;67.14;101508.88;10240047;28;20046;-88
2022/12/17 14:05:42;;;;;;;30.45;11.88;;;;;;;-1.28;67.12;101517.75;10246023;28;20051;-88
2022/12/17 14:10:50;;;;;;;29.75;10.40;;;;;;;-1.31;67.33;101517.03;10243201;28;20055;-88
2022/12/17 14:15:52;;;;;;;43.05;10.38;;;;;;;-1.29;67.12;101509.91;10235882;28;20056;-88
2022/12/17 14:20:55;;;;;;;58.35;10.98;;;;;;;-1.35;67.16;101511.03;10242288;28;20102;-88
2022/12/17 14:25:57;;;;;;;29.17;10.27;;;;;;;-1.44;67.38;101516.75;10263716;28;20123;-88
2022/12/17 14:31:13;;;;;;;44.53;13.95;;;;;;;-1.70;67.54;101512.63;10246382;28;20528;-89
2022/12/17 14:36:29;;;;;;;37.17;11.52;;;;;;;-1.66;67.20;101524.75;10235993;28;20426;-88
2022/12/17 14:47:10;;;;;;;39.85;13.45;;;;;;;-1.60;66.91;101527.97;10228859;28;20498;-88
2022/12/17 14:52:12;;;;;;;61.75;12.80;;;;;;;-1.67;66.95;101525.69;10263243;28;20586;-88
2022/12/17 14:57:21;;;;;;;36.55;12.80;;;;;;;-1.78;67.00;101536.69;10265745;28;20040;-88
2022/12/17 15:02:26;;;;;;;61.60;16.27;;;;;;;-1.89;67.47;101539.81;10272930;28;20071;-88
2022/12/17 15:07:30;;;;;;;44.40;13.18;;;;;;;-2.08;67.66;101539.72;10228830;28;20106;-88
2022/12/17 15:12:32;;;;;;;47.10;11.95;;;;;;;-2.15;67.26;101543.56;10247062;28;20061;-88
2022/12/17 15:17:34;;;;;;;35.10;13.20;;;;;;;-2.22;67.92;101548.19;10237678;28;20674;-88
2022/12/17 15:22:37;;;;;;;47.78;14.57;;;;;;;-2.10;67.87;101545.97;10239097;28;20047;-87
2022/12/17 15:27:38;;;;;;;52.35;13.55;;;;;;;-2.28;68.15;101553.72;10258212;28;20047;-87
2022/12/17 15:32:40;;;;;;;53.55;9.23;;;;;;;-2.75;69.01;101561.78;10235459;28;20036;-88
2022/12/17 15:37:41;;;;;;;91.78;12.40;;;;;;;-2.84;69.05;101562.16;10246300;28;20054;-88
2022/12/17 15:48:08;;;;;;;84.05;14.63;;;;;;;-2.65;68.00;101573.63;10239609;28;20046;-87
2022/12/17 15:53:09;;;;;;;39.38;12.55;;;;;;;-2.52;68.21;101571.38;10223648;29;20099;-87
2022/12/17 15:58:12;;;;;;;81.88;19.60;;;;;;;-2.41;67.95;101571.81;10237881;28;20055;-87
2022/12/17 16:03:14;;;;;;;37.95;14.85;;;;;;;-2.37;67.63;101569.91;10242660;28;20051;-88
2022/12/17 16:08:15;;;;;;;71.28;11.20;;;;;;;-2.53;68.05;101581.97;10237561;28;20581;-88
2022/12/17 16:13:17;;;;;;;73.57;13.93;;;;;;;-2.64;68.31;101585.91;10238219;28;20049;-88
2022/12/17 16:18:18;;;;;;;100.18;16.48;;;;;;;-2.88;68.51;101579.81;10240226;28;20048;-90
2022/12/17 16:23:20;;;;;;;53.20;10.93;;;;;;;-3.05;69.08;101598.03;10263079;28;20043;-89
2022/12/17 16:28:22;;;;;;;76.80;13.90;;;;;;;-3.14;68.91;101598.34;10235222;28;20062;-89
2022/12/17 16:33:23;;;;;;;120.65;14.52;;;;;;;-3.18;68.94;101602.88;10235008;28;20118;-90
2022/12/17 16:38:25;;;;;;;44.58;10.77;;;;;;;-3.02;68.70;101606.66;10251623;28;20162;-92
2022/12/17 16:43:31;;;;;;;42.10;13.30;;;;;;;-2.86;68.59;101606.09;10256674;28;20047;-91
2022/12/17 16:48:37;;;;;;;79.88;15.18;;;;;;;-2.80;68.42;101609.31;10257647;28;20047;-92
2022/12/17 16:53:40;;;;;;;90.07;13.57;;;;;;;-2.90;68.88;101614.97;10257209;28;20134;-91
2022/12/17 16:58:41;;;;;;;54.15;12.88;;;;;;;-2.89;68.93;101619.34;10238263;29;20638;-91
2022/12/17 17:03:43;;;;;;;91.82;14.57;;;;;;;-2.99;68.96;101619.66;10237103;28;20047;-90
2022/12/17 17:08:46;;;;;;;74.70;17.83;;;;;;;-2.93;68.71;101628.25;10237692;28;20035;-91
2022/12/17 17:13:49;;;;;;;48.55;15.80;;;;;;;-2.81;68.67;101628.63;10244088;28;20051;-91
2022/12/17 17:18:52;;;;;;;65.40;21.02;;;;;;;-2.76;68.77;101630.22;10250327;28;20055;-90
2022/12/17 17:23:58;;;;;;;65.47;15.20;;;;;;;-2.78;68.73;101632.94;10256755;28;20071;-92
2022/12/17 17:29:03;;;;;;;85.90;19.27;;;;;;;-2.77;68.79;101639.06;10259987;28;20157;-92
2022/12/17 17:34:09;;;;;;;43.50;11.65;;;;;;;-2.77;68.99;101639.91;10254619;28;20047;-92
2022/12/17 17:39:11;;;;;;;39.13;11.00;;;;;;;-2.91;68.96;101652.75;10239196;28;20048;-93
2022/12/17 17:44:15;;;;;;;65.55;12.55;;;;;;;-3.06;69.22;101643.63;10263620;28;20090;-92
2022/12/17 17:49:21;;;;;;;85.72;11.82;;;;;;;-3.25;69.42;101638.19;10251393;28;20130;-91
2022/12/17 17:54:22;;;;;;;75.75;11.88;;;;;;;-3.38;69.43;101643.03;10241214;29;20312;-91
2022/12/17 17:59:24;;;;;;;57.50;13.82;;;;;;;-3.44;69.42;101646.72;10256332;28;20493;-92
2022/12/17 18:04:34;;;;;;;103.55;17.38;;;;;;;-3.38;69.47;101648.28;10253843;28;20047;-92
2022/12/17 18:09:39;;;;;;;45.13;13.88;;;;;;;-3.25;69.15;101657.47;10273966;28;20090;-91
2022/12/17 18:14:41;;;;;;;40.10;11.57;;;;;;;-3.13;68.87;101663.19;10264341;28;20050;-91
2022/12/17 18:20:03;;;;;;;52.15;13.63;;;;;;;-3.07;68.76;101665.59;10272028;28;20059;-91
2022/12/17 18:25:05;;;;;;;66.53;18.25;;;;;;;-3.04;68.76;101663.72;10250735;28;20142;-91
2022/12/17 18:30:07;;;;;;;51.63;15.35;;;;;;;-3.02;68.79;101661.88;10252512;28;20050;-92
2022/12/17 18:35:09;;;;;;;215.55;24.35;;;;;;;-3.04;69.11;101668.97;10246025;28;20051;-92
2022/12/17 18:40:10;;;;;;;52.80;12.23;;;;;;;-3.29;69.73;101668.16;10228169;28;20112;-92
2022/12/17 18:45:13;;;;;;;57.38;15.68;;;;;;;-3.15;69.13;101675.53;10233922;28;20077;-90
2022/12/17 18:50:15;;;;;;;53.40;12.52;;;;;;;-3.17;69.26;101677.38;10269773;28;20058;-90
2022/12/17 18:55:17;;;;;;;60.92;10.90;;;;;;;-3.26;69.77;101676.78;10253378;28;20059;-91
2022/12/17 19:00:18;;;;;;;69.22;14.23;;;;;;;-3.39;69.65;101686.88;10221050;28;20134;-93
2022/12/17 19:05:31;;;;;;;64.15;16.15;;;;;;;-3.26;69.65;101682.06;10264675;28;20049;-92
2022/12/17 19:10:49;;;;;;;53.45;12.63;;;;;;;-3.22;69.51;101674.88;10259250;28;20127;-93
2022/12/17 19:16:23;;;;;;;71.80;15.05;;;;;;;-3.08;69.29;101680.53;10257048;28;20047;-91
2022/12/17 19:21:25;;;;;;;56.63;14.57;;;;;;;-3.01;69.43;101684.63;10247080;28;20046;-92
2022/12/17 19:26:45;;;;;;;48.45;14.27;;;;;;;-3.05;69.16;101679.56;10270761;28;20564;-92
2022/12/17 19:31:51;;;;;;;43.15;12.48;;;;;;;-2.99;68.99;101681.94;10269407;28;20044;-90
2022/12/17 19:36:53;;;;;;;45.70;15.30;;;;;;;-2.97;69.22;101690.66;10231417;28;20115;-92
2022/12/17 19:41:54;;;;;;;62.92;18.38;;;;;;;-2.95;69.23;101693.22;10221036;28;20043;-92
2022/12/17 19:46:57;;;;;;;59.53;17.73;;;;;;;-2.95;69.26;101695.84;10250981;28;20177;-92
2022/12/17 19:52:00;;;;;;;60.17;14.80;;;;;;;-3.00;68.84;101693.41;10256049;28;20055;-92
2022/12/17 19:57:03;;;;;;;45.40;14.20;;;;;;;-3.00;69.26;101688.16;10242788;28;20085;-90
2022/12/17 20:02:09;;;;;;;64.88;17.23;;;;;;;-3.05;69.06;101700.59;10264048;28;20043;-91
2022/12/17 20:07:12;;;;;;;45.10;13.43;;;;;;;-3.13;69.30;101695.59;10250031;28;20066;-92
2022/12/17 20:12:13;;;;;;;53.35;15.32;;;;;;;-3.33;69.88;101698.09;10269656;28;20054;-92
2022/12/17 20:17:15;;;;;;;42.38;14.73;;;;;;;-3.24;68.92;101690.75;10277158;28;20110;-90
2022/12/17 20:22:17;;;;;;;49.13;14.43;;;;;;;-3.20;69.32;101696.72;10262005;28;20110;-91
2022/12/17 20:27:18;;;;;;;66.63;16.40;;;;;;;-3.24;69.29;101698.63;10276474;28;20048;-91
2022/12/17 20:32:20;;;;;;;57.67;15.63;;;;;;;-3.25;69.55;101723.19;10252807;28;20087;-91
2022/12/17 20:37:22;;;;;;;63.17;16.00;;;;;;;-3.35;69.39;101736.72;10271064;28;20059;-91
2022/12/17 20:42:23;;;;;;;67.50;18.08;;;;;;;-3.40;69.42;101731.59;10250003;28;20083;-90
2022/12/17 20:47:25;;;;;;;82.75;14.18;;;;;;;-3.61;69.73;101741.06;10273831;28;20050;-91
2022/12/17 20:52:26;;;;;;;63.30;15.65;;;;;;;-3.72;69.86;101743.19;10269423;28;20055;-89
2022/12/17 20:57:28;;;;;;;72.22;15.45;;;;;;;-3.63;69.28;101742.91;10256964;28;20081;-90
2022/12/17 21:02:30;;;;;;;92.43;14.45;;;;;;;-3.75;69.36;101752.03;10262114;28;20047;-91
2022/12/17 21:07:39;;;;;;;58.10;13.63;;;;;;;-3.80;69.52;101738.19;10257996;28;20129;-94
2022/12/17 21:18:24;;;;;;;40.08;9.75;;;;;;;-3.73;69.31;101739.72;10238013;27;20042;-65
2022/12/17 21:23:26;;;;;;;32.42;10.70;;;;;;;-3.66;69.61;101741.22;10275593;29;20043;-65
2022/12/17 21:28:28;;;;;;;82.95;12.82;;;;;;;-3.75;68.94;101744.16;10275877;28;20074;-65
2022/12/17 21:33:30;;;;;;;61.08;12.23;;;;;;;-3.92;69.30;101752.56;10261495;28;20034;-65
2022/12/17 21:38:32;;;;;;;54.25;11.63;;;;;;;-3.93;69.72;101753.47;10272247;29;20053;-63
2022/12/17 21:43:35;;;;;;;37.25;12.40;;;;;;;-3.80;69.22;101760.03;10272917;28;20031;-65
2022/12/17 21:48:39;;;;;;;48.03;11.32;;;;;;;-3.82;69.13;101768.88;10278592;28;20094;-65
2022/12/17 21:53:42;;;;;;;114.30;17.10;;;;;;;-3.86;69.44;101780.41;10265479;29;20067;-64
2022/12/17 21:58:45;;;;;;;90.45;14.98;;;;;;;-3.90;69.44;101794.53;10292877;28;20043;-64
2022/12/17 22:03:48;;;;;;;74.57;10.75;;;;;;;-3.91;69.54;101791.06;10296204;28;20042;-63
2022/12/17 22:08:56;;;;;;;;;;;;;;;-4.02;69.65;101788.75;10320070;28;20065;-63
2022/12/17 22:14:11;;;;;;;43.35;11.57;;;;;;;-3.93;69.36;101781.50;10316322;28;19918;-63
2022/12/17 22:19:22;;;;;;;83.93;13.75;;;;;;;-3.93;69.57;101778.88;10308957;28;20043;-64
2022/12/17 22:24:23;;;;;;;144.50;15.68;;;;;;;-3.91;69.30;101771.78;10314094;28;20033;-64
2022/12/17 22:34:46;;;;;;;39.65;11.40;;;;;;;-4.09;69.61;101775.84;10244486;28;20502;-68
2022/12/17 22:40:09;;;;;;;104.90;16.00;;;;;;;-4.19;69.87;101791.91;10227639;28;20044;-68
2022/12/17 22:45:30;;;;;;;70.80;11.07;;;;;;;-4.20;69.51;101784.06;10221991;28;20047;-67
2022/12/17 22:50:31;;;;;;;47.30;9.57;;;;;;;-4.26;69.77;101776.38;10223489;28;20050;-65
2022/12/17 22:55:40;;;;;;;37.60;11.32;;;;;;;-4.30;69.44;101778.22;10259651;28;20051;-66
2022/12/17 23:00:42;;;;;;;47.90;11.60;;;;;;;-4.36;69.95;101794.16;10262739;28;20085;-66
2022/12/17 23:05:43;;;;;;;35.88;10.40;;;;;;;-4.44;69.83;101783.03;10261918;28;20074;-67
2022/12/17 23:10:45;;;;;;;39.80;10.48;;;;;;;-4.68;70.22;101785.44;10260725;28;20129;-65
2022/12/17 23:15:46;;;;;;;27.55;8.77;;;;;;;-4.84;69.61;101790.25;10260507;28;20498;-64
2022/12/17 23:20:48;;;;;;;29.70;9.52;;;;;;;-4.94;70.06;101785.28;10263204;28;20049;-66
2022/12/17 23:25:49;;;;;;;25.60;9.77;;;;;;;-5.00;69.68;101774.03;10263864;28;20057;-65
2022/12/17 23:30:50;;;;;;;21.38;8.50;;;;;;;-5.14;69.81;101775.31;10262866;28;20248;-67
2022/12/17 23:36:05;;;;;;;33.97;8.35;;;;;;;-5.28;69.78;101786.16;10261979;28;20049;-67
2022/12/17 23:41:13;;;;;;;28.15;7.45;;;;;;;-5.46;69.51;101790.97;10258103;28;20114;-66
2022/12/17 23:46:17;;;;;;;25.40;8.70;;;;;;;-5.44;69.27;101783.91;10262669;28;20105;-67
2022/12/17 23:51:20;;;;;;;20.63;6.97;;;;;;;-5.50;69.83;101796.31;10267449;28;20313;-67
2022/12/17 23:56:24;;;;;;;25.63;8.18;;;;;;;-5.62;69.16;101807.94;10262729;28;20142;-66
